Time;durP1;ratioP1;P1;durP2;ratioP2;P2;SDS_P1;SDS_P2;PMS_P1;PMS_P2;Temp;Humidity;BMP_temperature;BMP_pressure;BME280_temperature;BME280_humidity;BME280_pressure;Samples;Min_cycle;Max_cycle;Signal;HPM_P1;HPM_P2
2023/06/26 00:00:17;;;;;;;11.52;10.35;;;;;;;21.30;61.70;101026.44;5068501;28;20020;-82
2023/06/26 00:02:43;;;;;;;10.60;9.50;;;;;;;21.26;61.86;101019.84;5067903;28;20020;-82
2023/06/26 00:05:08;;;;;;;11.20;10.10;;;;;;;21.23;62.01;101022.31;5070314;28;20031;-82
2023/06/26 00:07:36;;;;;;;10.32;9.23;;;;;;;21.22;62.04;101017.91;5067330;28;20031;-82
2023/06/26 00:10:05;;;;;;;12.52;9.52;;;;;;;21.22;62.09;101017.91;5068232;28;20387;-78
2023/06/26 00:12:31;;;;;;;10.85;9.75;;;;;;;21.18;61.89;101018.44;5071296;28;20050;-80
2023/06/26 00:14:56;;;;;;;11.20;9.98;;;;;;;21.16;62.42;101030.75;5069300;28;20647;-79
2023/06/26 00:17:22;;;;;;;10.60;9.60;;;;;;;21.13;62.72;101026.59;5070991;28;20075;-80
2023/06/26 00:19:47;;;;;;;9.85;8.93;;;;;;;21.08;62.73;101014.81;5070269;28;20451;-79
2023/06/26 00:22:13;;;;;;;11.23;10.13;;;;;;;21.04;62.67;101012.59;5069147;28;20029;-79
2023/06/26 00:24:38;;;;;;;10.13;9.13;;;;;;;21.02;62.79;101013.94;5067337;28;20029;-80
2023/06/26 00:27:03;;;;;;;11.23;9.65;;;;;;;21.01;62.72;101002.16;5068583;28;20040;-80
2023/06/26 00:29:29;;;;;;;10.70;9.60;;;;;;;20.99;62.51;101004.38;5070945;28;20032;-80
2023/06/26 00:31:54;;;;;;;11.18;9.98;;;;;;;20.97;62.67;101006.53;5073132;28;20020;-80
2023/06/26 00:34:19;;;;;;;11.40;9.10;;;;;;;20.90;63.29;100994.97;5075195;28;20427;-79
2023/06/26 00:36:45;;;;;;;9.73;8.82;;;;;;;20.87;63.15;100992.75;5075839;28;20082;-80
2023/06/26 00:39:10;;;;;;;11.38;9.73;;;;;;;20.82;63.30;100990.00;5074137;28;20032;-79
2023/06/26 00:41:37;;;;;;;10.70;9.70;;;;;;;20.78;63.70;100992.44;5074349;28;20471;-80
2023/06/26 00:44:03;;;;;;;11.45;10.05;;;;;;;20.75;63.77;100993.78;5075627;28;20037;-80
2023/06/26 00:46:28;;;;;;;11.13;9.93;;;;;;;20.68;64.16;100987.66;5074147;28;20048;-80
2023/06/26 00:48:53;;;;;;;11.95;9.65;;;;;;;20.67;63.93;100990.69;5055710;28;20102;-80
2023/06/26 00:51:19;;;;;;;10.65;9.65;;;;;;;20.65;63.90;100979.97;5074629;28;20036;-80
2023/06/26 00:53:44;;;;;;;10.57;9.50;;;;;;;20.58;64.63;100979.41;5073096;28;20357;-80
2023/06/26 00:56:10;;;;;;;11.38;10.18;;;;;;;20.53;64.37;100968.41;5055843;28;20540;-80
2023/06/26 00:58:35;;;;;;;12.93;10.13;;;;;;;20.52;64.31;100967.59;5056413;28;20036;-79
2023/06/26 01:01:01;;;;;;;11.13;9.93;;;;;;;20.59;64.49;100970.13;5075127;28;20037;-79
2023/06/26 01:03:26;;;;;;;10.00;9.00;;;;;;;20.54;64.65;100975.53;5059143;28;20100;-79
2023/06/26 01:05:52;;;;;;;10.65;9.55;;;;;;;20.59;64.42;100956.44;5091661;28;20027;-79
2023/06/26 01:08:18;;;;;;;11.07;9.55;;;;;;;20.55;64.45;100961.63;5092767;28;20033;-80
2023/06/26 01:10:43;;;;;;;10.75;9.68;;;;;;;20.50;64.96;100958.84;5073405;28;20503;-79
2023/06/26 01:13:09;;;;;;;10.75;9.63;;;;;;;20.55;64.37;100966.25;5057249;28;20425;-80
2023/06/26 01:15:34;;;;;;;12.90;9.77;;;;;;;20.68;63.92;100963.06;5054738;28;20119;-81
2023/06/26 01:18:03;;;;;;;10.35;9.35;;;;;;;20.72;63.93;100964.19;5073338;28;20039;-80
2023/06/26 01:20:35;;;;;;;11.15;9.73;;;;;;;20.67;63.81;100964.13;5078981;28;20043;-80
2023/06/26 01:23:20;;;;;;;10.52;9.52;;;;;;;20.63;64.04;100963.03;5072131;28;20446;-80
2023/06/26 01:25:52;;;;;;;12.40;9.83;;;;;;;20.53;64.29;100963.78;5088823;28;20086;-80
2023/06/26 01:28:17;;;;;;;10.25;9.25;;;;;;;20.55;64.32;100960.78;5071910;28;20099;-80
2023/06/26 01:30:43;;;;;;;11.00;9.90;;;;;;;20.50;64.08;100958.00;5062176;28;20041;-79
2023/06/26 01:33:09;;;;;;;11.75;9.63;;;;;;;20.54;63.94;100948.19;5060528;28;20032;-79
2023/06/26 01:35:35;;;;;;;12.07;9.73;;;;;;;20.60;64.18;100947.16;5056583;28;20043;-80
2023/06/26 01:38:16;;;;;;;11.50;10.30;;;;;;;20.57;64.00;100939.47;5059964;28;20383;-80
2023/06/26 01:40:43;;;;;;;10.88;9.77;;;;;;;20.57;63.34;100945.75;5071235;28;20035;-80
2023/06/26 01:43:15;;;;;;;10.43;9.43;;;;;;;20.54;63.53;100934.50;5072489;28;20494;-79
2023/06/26 01:45:40;;;;;;;10.15;9.15;;;;;;;20.51;63.62;100940.50;5039305;28;20032;-80
2023/06/26 01:48:06;;;;;;;10.13;9.13;;;;;;;20.42;63.84;100941.00;5072113;28;20031;-80
2023/06/26 01:50:31;;;;;;;9.57;8.52;;;;;;;20.42;64.35;100951.09;5055684;28;20119;-80
2023/06/26 01:53:17;;;;;;;10.95;9.85;;;;;;;20.50;64.46;100952.53;5037538;28;20546;-80
2023/06/26 01:55:46;;;;;;;9.95;8.95;;;;;;;20.45;64.03;100951.41;5073775;28;20028;-80
2023/06/26 01:58:11;;;;;;;11.60;10.20;;;;;;;20.37;64.39;100954.63;5053955;28;20028;-80
2023/06/26 02:00:37;;;;;;;11.52;10.15;;;;;;;20.32;64.83;100956.50;5054500;28;20036;-80
2023/06/26 02:03:04;;;;;;;13.30;9.82;;;;;;;20.56;63.39;100951.50;5034659;28;20027;-80
2023/06/26 02:05:30;;;;;;;11.70;9.98;;;;;;;20.78;62.90;100943.19;5071232;28;20096;-80
2023/06/26 02:07:56;;;;;;;11.40;9.70;;;;;;;20.94;62.49;100946.00;5072777;28;20028;-80
2023/06/26 02:10:21;;;;;;;11.82;10.40;;;;;;;20.96;62.62;100941.09;5071969;28;20633;-79
2023/06/26 02:12:47;;;;;;;10.63;9.52;;;;;;;21.07;62.32;100947.47;5071963;28;20032;-80
2023/06/26 02:15:12;;;;;;;10.70;9.60;;;;;;;21.18;62.07;100957.41;5072982;28;20028;-79
2023/06/26 02:17:37;;;;;;;14.30;10.02;;;;;;;21.28;61.77;100957.44;5073261;28;20048;-80
2023/06/26 02:20:03;;;;;;;12.95;10.57;;;;;;;21.35;61.00;100957.19;5070509;28;20464;-80
2023/06/26 02:22:28;;;;;;;15.38;10.85;;;;;;;21.38;61.05;100951.19;5071972;28;20048;-80
2023/06/26 02:24:54;;;;;;;11.57;10.38;;;;;;;21.38;61.47;100964.03;5069850;28;20082;-80
2023/06/26 02:27:19;;;;;;;11.38;10.05;;;;;;;21.33;61.17;100965.69;5072831;28;20033;-80
2023/06/26 02:29:44;;;;;;;14.23;10.77;;;;;;;21.29;61.62;100967.28;5072512;28;20471;-80
2023/06/26 02:32:10;;;;;;;13.70;11.38;;;;;;;21.24;62.18;100961.78;5072402;28;20028;-80
2023/06/26 02:34:35;;;;;;;13.13;11.73;;;;;;;21.29;61.71;100958.25;5068532;28;20021;-80
2023/06/26 02:37:01;;;;;;;12.25;10.80;;;;;;;21.25;61.89;100968.09;5072574;28;20036;-80
2023/06/26 02:39:27;;;;;;;12.90;11.25;;;;;;;21.23;62.30;100982.03;5072311;28;20078;-80
2023/06/26 02:41:55;;;;;;;11.75;10.55;;;;;;;21.08;62.73;100981.97;5072217;28;20115;-80
2023/06/26 02:44:21;;;;;;;12.43;11.23;;;;;;;21.14;63.07;100983.66;5072001;28;20090;-80
2023/06/26 02:46:46;;;;;;;12.55;11.25;;;;;;;21.08;63.17;100981.97;5072393;28;20032;-80
2023/06/26 02:49:11;;;;;;;12.63;11.32;;;;;;;20.93;63.96;100986.25;5071671;28;20097;-80
2023/06/26 02:51:37;;;;;;;12.60;11.40;;;;;;;20.73;64.96;100993.19;5071517;28;20025;-80
2023/06/26 02:54:03;;;;;;;12.75;11.38;;;;;;;20.68;64.95;100982.19;5070928;28;20483;-80
2023/06/26 02:56:28;;;;;;;15.80;12.20;;;;;;;20.64;65.07;100985.72;5072362;28;20032;-81
2023/06/26 02:58:55;;;;;;;13.02;11.68;;;;;;;20.60;65.18;100979.97;5071064;28;20025;-80
2023/06/26 03:01:23;;;;;;;12.80;11.55;;;;;;;20.57;65.33;100980.47;5071959;28;20039;-80
2023/06/26 03:03:48;;;;;;;12.95;11.50;;;;;;;20.56;65.63;100985.13;5070896;28;20117;-81
2023/06/26 03:06:16;;;;;;;12.30;11.02;;;;;;;20.57;65.81;100980.47;5072640;28;20660;-80
2023/06/26 03:08:42;;;;;;;13.35;12.05;;;;;;;20.51;65.89;100992.47;5072035;28;20039;-81
2023/06/26 03:11:07;;;;;;;12.57;11.27;;;;;;;20.43;66.09;100991.88;5073500;28;20024;-81
2023/06/26 03:13:34;;;;;;;13.40;12.00;;;;;;;20.43;66.24;100993.75;5068981;28;20119;-80
2023/06/26 03:15:59;;;;;;;13.52;11.98;;;;;;;20.38;66.42;100980.88;5071455;28;20047;-80
2023/06/26 03:18:25;;;;;;;13.90;12.50;;;;;;;20.41;66.66;100994.03;5071204;28;20456;-80
2023/06/26 03:20:50;;;;;;;14.20;12.68;;;;;;;20.28;66.94;100995.28;5071513;28;20457;-80
2023/06/26 03:23:16;;;;;;;14.88;13.02;;;;;;;20.12;67.34;100998.94;5051768;28;20020;-80
2023/06/26 03:25:41;;;;;;;14.07;12.43;;;;;;;20.12;67.77;101004.41;5071277;28;20042;-80
2023/06/26 03:28:07;;;;;;;15.50;12.55;;;;;;;20.11;67.83;101003.59;5070374;28;20103;-81
2023/06/26 03:30:32;;;;;;;15.43;11.90;;;;;;;20.08;68.15;101009.56;5070224;28;20040;-80
2023/06/26 03:32:57;;;;;;;12.88;11.55;;;;;;;20.14;67.68;101010.44;5071075;28;20106;-80
2023/06/26 03:35:23;;;;;;;14.20;11.90;;;;;;;20.18;68.00;101011.59;5070447;28;20463;-81
2023/06/26 03:37:49;;;;;;;12.85;11.65;;;;;;;20.15;67.71;101015.66;5052334;28;20024;-80
2023/06/26 03:40:17;;;;;;;13.25;11.82;;;;;;;20.15;68.01;101023.03;5070851;28;20024;-79
2023/06/26 03:42:42;;;;;;;12.55;11.25;;;;;;;20.26;67.72;101023.97;5069602;28;20099;-80
2023/06/26 03:45:08;;;;;;;12.25;10.45;;;;;;;20.22;67.78;101022.81;5065970;28;20035;-80
2023/06/26 03:47:33;;;;;;;10.23;9.23;;;;;;;20.22;67.88;101025.56;5071534;28;20029;-79
2023/06/26 03:49:59;;;;;;;10.43;9.32;;;;;;;20.30;67.53;101027.81;5070676;28;20377;-80
2023/06/26 03:52:24;;;;;;;10.45;8.90;;;;;;;20.25;67.05;101033.25;5070225;28;20024;-80
2023/06/26 03:54:49;;;;;;;9.38;8.20;;;;;;;20.25;67.74;101038.72;5070442;28;20029;-80
2023/06/26 03:57:15;;;;;;;9.70;8.00;;;;;;;20.26;67.37;101038.44;5071939;28;20923;-80
2023/06/26 03:59:40;;;;;;;9.75;7.20;;;;;;;20.25;67.36;101038.72;5068212;28;20036;-80
2023/06/26 04:02:06;;;;;;;7.65;6.60;;;;;;;20.27;67.80;101033.81;5071455;28;20021;-80
2023/06/26 04:04:31;;;;;;;9.45;7.03;;;;;;;20.33;67.65;101040.97;5069083;28;20417;-81
2023/06/26 04:06:58;;;;;;;8.85;6.63;;;;;;;20.45;67.05;101044.41;5069983;28;20387;-80
2023/06/26 04:09:24;;;;;;;8.88;6.03;;;;;;;20.54;66.35;101039.28;5070592;28;20032;-83
2023/06/26 04:11:49;;;;;;;8.57;6.13;;;;;;;20.45;67.17;101049.84;5071367;28;20035;-80
2023/06/26 04:14:15;;;;;;;9.70;6.05;;;;;;;20.56;66.56;101050.75;5040366;28;20020;-80
2023/06/26 04:16:40;;;;;;;11.57;5.47;;;;;;;20.58;66.60;101050.50;5069746;28;20511;-80
2023/06/26 04:19:06;;;;;;;7.65;5.50;;;;;;;20.61;66.59;101052.72;5070708;28;20056;-80
2023/06/26 04:21:31;;;;;;;8.00;5.45;;;;;;;20.39;66.93;101050.88;5076750;28;20476;-80
2023/06/26 04:23:56;;;;;;;8.48;5.53;;;;;;;20.52;66.82;101044.19;5069850;28;20040;-81
2023/06/26 04:26:22;;;;;;;8.20;5.63;;;;;;;20.51;66.96;101048.00;5053772;28;20492;-80
2023/06/26 04:28:48;;;;;;;8.07;4.72;;;;;;;20.76;66.64;101057.53;5069280;28;20032;-80
2023/06/26 04:31:13;;;;;;;6.95;5.45;;;;;;;20.66;66.77;101047.28;5074826;28;20025;-82
2023/06/26 04:33:41;;;;;;;7.82;5.30;;;;;;;20.59;66.95;101052.16;5072441;28;20035;-82
2023/06/26 04:36:07;;;;;;;11.75;5.47;;;;;;;20.63;66.57;101050.56;5072340;28;20029;-82
2023/06/26 04:38:33;;;;;;;6.75;4.80;;;;;;;21.12;65.35;101057.81;5072976;28;20494;-81
2023/06/26 04:40:58;;;;;;;10.23;4.80;;;;;;;21.71;63.46;101058.72;5085269;28;20016;-82
2023/06/26 04:43:26;;;;;;;7.78;5.03;;;;;;;22.07;62.12;101058.03;5090841;28;20557;-80
2023/06/26 04:45:52;;;;;;;8.63;5.75;;;;;;;21.94;62.44;101062.94;5067620;28;20033;-81
2023/06/26 04:48:17;;;;;;;8.02;5.13;;;;;;;21.83;62.71;101065.88;5079870;28;20036;-87
2023/06/26 04:50:43;;;;;;;7.95;5.25;;;;;;;22.04;62.13;101070.34;5064666;28;20032;-83
2023/06/26 04:53:08;;;;;;;10.15;5.57;;;;;;;22.20;61.93;101076.72;5050615;28;21519;-87
2023/06/26 04:55:34;;;;;;;8.98;5.03;;;;;;;22.26;61.87;101089.34;5066582;28;20499;-89
2023/06/26 04:58:00;;;;;;;9.40;5.55;;;;;;;22.23;61.53;101081.69;5071374;28;20035;-89
2023/06/26 05:00:25;;;;;;;9.30;4.97;;;;;;;21.57;63.68;101083.00;5081072;28;20040;-89
2023/06/26 05:03:00;;;;;;;9.00;5.68;;;;;;;21.48;64.20;101092.81;5075367;28;20047;-94
2023/06/26 05:05:26;;;;;;;10.03;5.13;;;;;;;21.05;65.84;101093.63;5076574;28;20036;-94
2023/06/26 05:07:53;;;;;;;13.95;5.70;;;;;;;20.95;66.63;101104.50;5071515;28;20112;-95
2023/06/26 05:10:18;;;;;;;14.13;5.97;;;;;;;20.65;67.75;101102.28;5075581;28;20029;-90
2023/06/26 05:12:44;;;;;;;11.27;5.55;;;;;;;20.60;67.74;101108.53;5084518;28;20031;-91
2023/06/26 05:15:09;;;;;;;9.82;5.78;;;;;;;20.50;68.40;101105.66;5067806;28;20359;-92
2023/06/26 05:17:37;;;;;;;12.40;5.28;;;;;;;20.72;67.32;101106.44;5078989;28;20127;-90
2023/06/26 05:20:03;;;;;;;10.27;5.20;;;;;;;20.78;67.30;101103.78;5069807;28;20032;-91
2023/06/26 05:22:29;;;;;;;9.65;5.43;;;;;;;21.13;66.47;101106.00;5076810;28;20848;-90
2023/06/26 05:24:55;;;;;;;14.35;5.50;;;;;;;21.62;64.93;101109.66;5085574;28;20032;-89
2023/06/26 05:27:21;;;;;;;11.05;5.20;;;;;;;21.68;64.22;101107.75;5075711;28;20048;-90
2023/06/26 05:29:48;;;;;;;9.88;5.32;;;;;;;21.29;65.91;101106.94;5068556;28;20047;-89
2023/06/26 05:32:17;;;;;;;10.20;5.75;;;;;;;21.24;66.02;101119.78;5073439;28;20436;-89
2023/06/26 05:34:44;;;;;;;12.38;5.85;;;;;;;20.85;67.72;101120.81;5053795;28;20040;-88
2023/06/26 05:37:09;;;;;;;11.10;5.25;;;;;;;20.47;68.94;101125.34;5034928;28;20039;-90
2023/06/26 05:39:35;;;;;;;12.93;5.93;;;;;;;20.40;69.27;101120.06;5036835;28;20049;-84
2023/06/26 05:42:01;;;;;;;12.57;5.95;;;;;;;20.50;69.29;101122.06;5069682;28;20048;-87
2023/06/26 05:44:26;;;;;;;13.40;5.40;;;;;;;20.67;68.44;101136.47;5071238;28;20028;-87
2023/06/26 05:46:51;;;;;;;10.27;5.47;;;;;;;21.38;66.32;101131.91;5077588;28;20036;-79
2023/06/26 05:49:17;;;;;;;17.17;6.32;;;;;;;22.25;64.14;101133.50;5094957;28;20028;-91
2023/06/26 05:51:42;;;;;;;16.48;5.75;;;;;;;22.85;61.15;101136.69;5078734;28;20032;-92
2023/06/26 05:54:08;;;;;;;12.05;5.55;;;;;;;24.04;57.96;101132.97;5068307;28;20051;-87
2023/06/26 05:56:33;;;;;;;13.23;5.50;;;;;;;24.68;56.46;101130.44;5082849;28;20455;-90
2023/06/26 05:58:59;;;;;;;12.93;5.28;;;;;;;24.96;55.65;101128.06;5072489;28;20028;-92
2023/06/26 06:01:24;;;;;;;11.10;5.03;;;;;;;25.25;54.23;101139.09;5074864;28;20072;-93
2023/06/26 06:03:49;;;;;;;13.55;5.72;;;;;;;24.58;55.08;101150.56;5075373;28;20428;-92
2023/06/26 06:06:15;;;;;;;13.68;5.57;;;;;;;24.64;56.04;101156.88;5077007;28;20020;-90
2023/06/26 06:08:41;;;;;;;16.92;6.10;;;;;;;24.87;54.60;101160.06;5072184;28;20025;-94
2023/06/26 06:11:06;;;;;;;13.15;5.63;;;;;;;25.34;53.46;101155.00;5073422;28;20027;-93
2023/06/26 06:13:32;;;;;;;11.20;5.43;;;;;;;25.79;52.19;101168.63;5071275;28;20032;-94
2023/06/26 06:15:57;;;;;;;10.63;5.18;;;;;;;26.01;51.56;101171.69;5075157;28;20025;-92
2023/06/26 06:18:22;;;;;;;10.43;4.95;;;;;;;27.20;49.01;101185.81;5064494;28;20025;-89
2023/06/26 06:20:51;;;;;;;14.45;5.63;;;;;;;26.81;49.45;101176.75;5076874;28;20008;-93
2023/06/26 06:23:16;;;;;;;11.00;4.88;;;;;;;26.46;50.69;101185.25;5077307;28;20029;-93
2023/06/26 06:25:41;;;;;;;13.20;5.22;;;;;;;25.73;52.11;101188.00;5075991;28;20119;-91
2023/06/26 06:28:07;;;;;;;13.25;5.13;;;;;;;25.30;53.22;101189.75;5074999;28;20434;-92
2023/06/26 06:30:32;;;;;;;12.13;5.38;;;;;;;24.97;54.80;101193.88;5075352;28;20024;-93
2023/06/26 06:32:58;;;;;;;12.50;5.38;;;;;;;24.94;54.28;101188.91;5073935;28;20028;-91
2023/06/26 06:35:23;;;;;;;16.55;5.72;;;;;;;24.23;55.53;101196.44;5080704;28;20077;-94
2023/06/26 06:37:48;;;;;;;13.80;5.63;;;;;;;23.55;56.90;101200.41;5082814;28;20029;-93
2023/06/26 06:40:14;;;;;;;12.88;5.38;;;;;;;23.73;56.93;101204.53;5047216;28;20025;-91
2023/06/26 06:42:39;;;;;;;11.35;5.47;;;;;;;23.26;57.58;101211.97;5085676;28;20036;-94
2023/06/26 06:45:05;;;;;;;11.68;5.10;;;;;;;23.91;55.58;101211.34;5077868;28;20028;-89
2023/06/26 06:47:33;;;;;;;13.43;5.22;;;;;;;24.09;55.32;101222.91;5090749;28;20471;-93
2023/06/26 06:50:07;;;;;;;10.15;4.95;;;;;;;24.76;53.96;101225.38;5079979;28;20032;-91
2023/06/26 06:52:34;;;;;;;11.13;4.95;;;;;;;25.80;51.25;101237.28;5070502;28;20054;-92
2023/06/26 06:55:04;;;;;;;12.55;5.50;;;;;;;25.28;51.99;101239.66;5074992;28;20036;-88
2023/06/26 06:57:30;;;;;;;11.55;4.82;;;;;;;25.24;52.58;101244.88;5072903;28;20039;-93
2023/06/26 06:59:55;;;;;;;9.45;4.75;;;;;;;25.46;51.06;101249.16;5082831;28;20020;-91
2023/06/26 07:02:21;;;;;;;11.85;4.53;;;;;;;25.28;50.64;101240.47;5079173;28;20457;-92
2023/06/26 07:04:46;;;;;;;12.85;4.78;;;;;;;25.38;50.79;101247.00;5069305;28;20027;-87
2023/06/26 07:07:13;;;;;;;9.07;4.65;;;;;;;25.73;49.96;101243.13;5069862;28;20029;-88
2023/06/26 07:09:39;;;;;;;9.63;4.75;;;;;;;25.93;49.33;101240.47;5050172;28;20535;-88
2023/06/26 07:12:04;;;;;;;9.55;4.68;;;;;;;26.17;48.58;101246.03;5068417;28;20024;-86
2023/06/26 07:14:30;;;;;;;11.02;4.60;;;;;;;26.83;46.98;101235.28;5063316;28;20036;-88
2023/06/26 07:16:55;;;;;;;11.55;4.50;;;;;;;27.91;44.63;101240.19;5065739;28;20012;-85
2023/06/26 07:19:21;;;;;;;8.90;3.97;;;;;;;28.35;43.42;101243.50;5066835;28;20106;-89
2023/06/26 07:21:47;;;;;;;8.65;4.35;;;;;;;29.09;41.18;101248.00;5068455;28;20089;-81
2023/06/26 07:24:12;;;;;;;11.57;4.03;;;;;;;29.52;41.06;101256.94;5066240;28;20028;-81
2023/06/26 07:26:38;;;;;;;8.32;4.00;;;;;;;29.17;42.15;101251.97;5065681;28;20044;-82
2023/06/26 07:29:03;;;;;;;9.55;3.80;;;;;;;29.90;38.07;101251.81;5066616;28;20749;-81
2023/06/26 07:31:29;;;;;;;8.52;3.55;;;;;;;29.46;38.81;101270.13;5069578;28;20155;-83
2023/06/26 07:33:54;;;;;;;8.68;3.60;;;;;;;28.85;39.75;101265.72;5059948;28;21584;-83
2023/06/26 07:36:20;;;;;;;6.88;3.17;;;;;;;29.24;38.36;101274.50;5072879;28;20106;-82
2023/06/26 07:38:45;;;;;;;7.00;3.00;;;;;;;29.52;37.73;101276.38;5057142;28;20074;-83
2023/06/26 07:41:11;;;;;;;6.40;3.30;;;;;;;28.41;40.18;101286.59;5049593;28;20051;-83
2023/06/26 07:43:36;;;;;;;6.10;3.38;;;;;;;27.45;42.17;101288.78;5064725;28;20032;-84
2023/06/26 07:46:01;;;;;;;5.95;3.30;;;;;;;27.32;42.58;101285.69;5052521;28;20223;-82
2023/06/26 07:48:27;;;;;;;7.82;3.50;;;;;;;27.09;43.34;101282.69;5070495;28;20384;-86
2023/06/26 07:50:53;;;;;;;8.15;3.58;;;;;;;27.38;42.90;101283.66;5077388;28;20442;-83
2023/06/26 07:53:18;;;;;;;6.93;3.30;;;;;;;28.14;41.48;101277.13;5081322;28;20131;-81
2023/06/26 07:55:44;;;;;;;10.30;4.07;;;;;;;28.69;40.91;101295.66;5069449;28;20132;-83
2023/06/26 07:58:10;;;;;;;6.00;3.40;;;;;;;29.91;36.93;101302.56;5066758;28;20021;-84
2023/06/26 08:00:35;;;;;;;6.30;3.10;;;;;;;29.86;38.38;101294.38;5066194;28;20500;-82
2023/06/26 08:03:00;;;;;;;6.80;3.30;;;;;;;30.43;37.23;101301.19;5067971;28;20090;-85
2023/06/26 08:05:29;;;;;;;9.07;3.53;;;;;;;30.07;37.63;101295.50;5066172;28;20486;-83
2023/06/26 08:07:54;;;;;;;7.55;3.38;;;;;;;29.50;38.24;101305.25;5063251;28;20027;-87
2023/06/26 08:10:20;;;;;;;7.63;3.65;;;;;;;29.34;37.70;101303.94;5069136;28;21122;-85
2023/06/26 08:12:46;;;;;;;6.60;3.55;;;;;;;28.85;38.88;101306.47;5067910;28;20379;-84
2023/06/26 08:15:12;;;;;;;7.38;3.10;;;;;;;28.98;38.82;101305.63;5068531;28;20426;-84
2023/06/26 08:17:37;;;;;;;7.10;3.17;;;;;;;29.34;38.30;101304.78;5071993;28;20028;-85
2023/06/26 08:20:03;;;;;;;6.95;3.20;;;;;;;28.88;38.70;101314.13;5066989;28;20082;-83
2023/06/26 08:22:29;;;;;;;5.47;3.30;;;;;;;29.59;37.08;101307.28;5063680;28;20107;-84
2023/06/26 08:24:54;;;;;;;6.97;2.80;;;;;;;28.87;37.91;101312.50;5063746;28;20029;-84
2023/06/26 08:27:20;;;;;;;4.50;2.67;;;;;;;29.29;38.21;101327.09;5061280;28;20082;-86
2023/06/26 08:29:51;;;;;;;5.95;3.00;;;;;;;28.27;39.20;101328.09;5061927;28;20025;-87
2023/06/26 08:32:17;;;;;;;5.40;2.92;;;;;;;28.68;38.63;101324.50;5068375;28;20032;-85
2023/06/26 08:34:42;;;;;;;4.28;2.72;;;;;;;29.11;38.05;101330.84;5068142;28;20047;-87
2023/06/26 08:37:10;;;;;;;7.00;3.05;;;;;;;29.96;36.40;101327.44;5063904;28;20025;-85
2023/06/26 08:39:36;;;;;;;4.50;2.83;;;;;;;31.30;34.09;101318.03;5070437;28;20434;-85
2023/06/26 08:42:01;;;;;;;4.60;3.30;;;;;;;29.46;36.85;101315.34;5065309;28;20044;-85
2023/06/26 08:44:26;;;;;;;4.53;3.00;;;;;;;29.18;37.31;101331.22;5069233;28;20031;-85
2023/06/26 08:46:52;;;;;;;5.18;3.10;;;;;;;29.52;36.88;101326.31;5048933;28;20033;-84
2023/06/26 08:49:22;;;;;;;6.28;2.90;;;;;;;30.13;36.86;101337.00;5069582;28;20074;-85
2023/06/26 08:51:52;;;;;;;3.95;3.00;;;;;;;31.14;35.10;101331.63;5061729;28;20040;-86
2023/06/26 08:54:17;;;;;;;3.83;3.15;;;;;;;30.80;33.91;101341.50;5084649;28;20319;-85
2023/06/26 08:56:44;;;;;;;3.92;2.55;;;;;;;31.60;33.10;101342.41;5056369;28;20277;-85
2023/06/26 08:59:14;;;;;;;5.15;2.85;;;;;;;31.75;32.06;101343.91;5052748;28;20046;-85
2023/06/26 09:01:39;;;;;;;5.50;2.63;;;;;;;32.38;31.32;101360.13;5052620;28;20028;-85
2023/06/26 09:04:05;;;;;;;3.72;2.55;;;;;;;30.30;34.73;101339.88;5052348;28;20024;-86
2023/06/26 09:06:31;;;;;;;5.35;3.10;;;;;;;29.36;35.52;101348.84;5068161;28;20166;-85
2023/06/26 09:08:59;;;;;;;4.45;2.60;;;;;;;28.78;37.20;101355.94;5073792;28;20355;-84
2023/06/26 09:11:24;;;;;;;5.55;2.80;;;;;;;27.49;39.87;101350.72;5068845;28;20107;-84
2023/06/26 09:13:50;;;;;;;5.70;3.03;;;;;;;28.14;39.50;101355.47;5068529;28;20538;-82
2023/06/26 09:16:15;;;;;;;5.20;3.03;;;;;;;28.68;38.60;101348.63;5034980;28;20032;-80
2023/06/26 09:18:42;;;;;;;7.72;3.10;;;;;;;30.19;36.07;101342.09;5075105;28;20035;-81
2023/06/26 09:21:08;;;;;;;3.38;2.35;;;;;;;29.95;35.13;101348.81;5068612;28;20142;-81
2023/06/26 09:23:34;;;;;;;4.75;2.90;;;;;;;30.56;33.49;101358.59;5070627;28;20063;-83
2023/06/26 09:25:59;;;;;;;7.35;2.80;;;;;;;30.95;32.71;101345.00;5071463;28;20024;-90
2023/06/26 09:30:50;;;;;;;3.17;2.40;;;;;;;30.98;31.56;101367.41;5045961;22;20106;-82
2023/06/26 09:33:16;;;;;;;3.97;2.72;;;;;;;30.74;32.27;101356.72;5057979;28;20016;-82
2023/06/26 09:35:43;;;;;;;4.82;2.80;;;;;;;31.30;31.96;101347.84;5006113;28;20058;-82
2023/06/26 09:38:08;;;;;;;4.32;2.70;;;;;;;30.97;32.27;101354.63;5014810;28;20258;-82
2023/06/26 09:40:35;;;;;;;3.65;2.70;;;;;;;31.49;31.43;101353.06;4991625;28;20526;-82
2023/06/26 09:43:07;;;;;;;4.47;2.30;;;;;;;31.63;31.54;101364.03;5051742;28;20424;-82
2023/06/26 09:45:33;;;;;;;6.47;2.70;;;;;;;29.84;35.01;101379.88;5030393;28;20135;-81
2023/06/26 09:48:03;;;;;;;6.43;3.05;;;;;;;29.43;35.48;101382.53;4988211;28;20022;-83
2023/06/26 09:50:28;;;;;;;7.28;2.53;;;;;;;28.61;36.05;101390.59;4988248;28;20091;-81
2023/06/26 09:52:54;;;;;;;3.90;2.50;;;;;;;28.21;37.00;101388.28;5030334;28;20054;-81
2023/06/26 09:55:22;;;;;;;4.28;2.80;;;;;;;27.87;38.32;101386.63;5000666;28;20026;-81
2023/06/26 09:57:49;;;;;;;7.03;3.10;;;;;;;27.21;38.16;101378.16;5014925;28;20084;-81
2023/06/26 10:00:15;;;;;;;6.05;3.17;;;;;;;27.55;37.76;101382.66;5018623;28;20035;-81
2023/06/26 10:02:43;;;;;;;8.25;2.90;;;;;;;27.79;38.28;101381.75;5020867;28;20068;-81
2023/06/26 10:05:08;;;;;;;6.32;3.10;;;;;;;28.92;36.84;101375.31;4986265;28;20026;-78
2023/06/26 10:07:34;;;;;;;4.25;2.60;;;;;;;29.82;35.16;101379.41;5005218;28;20027;-80
2023/06/26 10:10:00;;;;;;;4.53;2.88;;;;;;;29.88;34.94;101381.75;4966323;28;20803;-79
2023/06/26 10:12:30;;;;;;;5.57;2.70;;;;;;;30.36;34.27;101384.97;4970052;28;20030;-82
2023/06/26 10:14:57;;;;;;;8.48;2.50;;;;;;;29.51;33.68;101389.28;4985218;28;20022;-84
2023/06/26 10:17:22;;;;;;;5.30;2.70;;;;;;;29.20;34.53;101387.19;4983310;28;20026;-83
2023/06/26 10:19:48;;;;;;;3.85;2.58;;;;;;;29.84;33.57;101385.44;4969078;28;20374;-84
2023/06/26 10:22:17;;;;;;;4.93;2.35;;;;;;;29.85;33.39;101398.19;4986559;28;20034;-84
2023/06/26 10:24:42;;;;;;;4.25;2.25;;;;;;;28.89;34.79;101401.69;4980474;28;20134;-83
2023/06/26 10:27:18;;;;;;;4.85;2.08;;;;;;;29.50;33.64;101395.97;4962243;28;20049;-84
2023/06/26 10:30:05;;;;;;;4.90;2.33;;;;;;;30.06;31.46;101393.78;4988887;28;20126;-83
2023/06/26 10:32:30;;;;;;;4.90;2.10;;;;;;;29.40;33.54;101399.81;5000550;28;20033;-83
2023/06/26 10:34:55;;;;;;;4.93;2.00;;;;;;;28.84;32.04;101416.47;4988550;28;20034;-84
2023/06/26 10:37:21;;;;;;;7.00;2.00;;;;;;;28.81;32.21;101394.91;4971279;28;20030;-84
2023/06/26 10:39:49;;;;;;;3.60;1.80;;;;;;;28.73;32.34;101409.47;5010954;28;20390;-82
2023/06/26 10:42:14;;;;;;;7.78;1.88;;;;;;;29.54;28.62;101418.34;4989812;28;20039;-85
2023/06/26 10:44:43;;;;;;;2.67;1.45;;;;;;;30.44;28.43;101413.94;5002397;28;20027;-84
2023/06/26 10:47:09;;;;;;;5.82;1.58;;;;;;;30.14;27.58;101414.41;4994984;28;20034;-82
2023/06/26 10:49:36;;;;;;;4.88;1.40;;;;;;;30.67;25.94;101429.44;5024997;28;20457;-78
2023/06/26 10:52:01;;;;;;;6.10;1.52;;;;;;;31.14;26.39;101428.13;5024057;28;20160;-79
2023/06/26 10:54:30;;;;;;;4.07;1.35;;;;;;;30.65;26.77;101428.94;4987108;28;20129;-78
2023/06/26 10:56:58;;;;;;;7.40;1.70;;;;;;;30.44;27.22;101430.59;4965493;28;20064;-77
2023/06/26 10:59:28;;;;;;;2.75;1.25;;;;;;;31.08;26.95;101432.16;5031962;28;20020;-82
2023/06/26 11:02:01;;;;;;;3.33;1.70;;;;;;;31.56;26.44;101442.44;4976113;28;20397;-83
2023/06/26 11:04:36;;;;;;;3.03;1.30;;;;;;;32.23;26.48;101425.50;4989696;28;20402;-84
2023/06/26 11:07:14;;;;;;;6.05;1.45;;;;;;;31.96;27.25;101426.72;4983765;28;20032;-82
2023/06/26 11:09:59;;;;;;;5.90;1.55;;;;;;;32.14;26.98;101431.09;4990360;28;20434;-82
2023/06/26 11:12:42;;;;;;;3.78;1.50;;;;;;;32.92;26.02;101436.78;5003686;28;20083;-82
2023/06/26 11:15:14;;;;;;;2.65;1.55;;;;;;;32.02;25.15;101442.13;4986321;28;20135;-82
2023/06/26 11:17:39;;;;;;;6.03;1.50;;;;;;;29.37;30.34;101455.88;4992407;28;20034;-84